Weather at Yalata Mission Airport

Public forecast

Using degrees Celsius for public forecast. Weather courtesy of forecast.io.

Closest aviation weather report (METAR) to Yalata Mission Airport

Closest report is Ceduna Airport, 104.0 nm (192.7 km) ESE. Retrieved 2021/08/03 20:00 UTC (56 minutes ago):

YCDU 032000Z AUTO 32006KT 9999 // SCT024 08/08 Q1027

Closest aviation forecast (TAF) to Yalata Mission Airport

Closest forecast is Forrest Airport, 194.4 nm (360.0 km) W. Retrieved 2021/08/03 20:00 UTC (56 minutes ago):

TAF YFRT 031907Z 0320/0408 23008KT 9999 FEW045 FM032200 28008KT 9999 SCT030 PROB30 0320/0401 0300 FG